Time;durP1;ratioP1;P1;durP2;ratioP2;P2;SDS_P1;SDS_P2;PMS_P1;PMS_P2;Temp;Humidity;BMP_temperature;BMP_pressure;BME280_temperature;BME280_humidity;BME280_pressure;Samples;Min_cycle;Max_cycle;Signal;HPM_P1;HPM_P2
2021/11/22 00:00:32;;;;;;;5.85;1.35;;;6.90;89.50;;;;;;5076924;28;20025;-71
2021/11/22 00:02:59;;;;;;;2.70;0.98;;;6.90;89.50;;;;;;5076757;28;20055;-71
2021/11/22 00:05:26;;;;;;;4.63;1.30;;;6.90;89.50;;;;;;5077732;28;20028;-72
2021/11/22 00:07:52;;;;;;;4.85;1.30;;;6.90;89.40;;;;;;5077672;28;20027;-71
2021/11/22 00:10:18;;;;;;;2.33;0.90;;;6.80;89.40;;;;;;5077108;28;20088;-72
2021/11/22 00:12:45;;;;;;;2.85;1.15;;;6.80;89.50;;;;;;5075909;28;20097;-72
2021/11/22 00:15:14;;;;;;;3.25;1.75;;;6.80;89.40;;;;;;5077747;28;20564;-72
2021/11/22 00:17:40;;;;;;;3.40;1.00;;;6.80;89.40;;;;;;5077489;28;20027;-72
2021/11/22 00:20:10;;;;;;;4.53;1.27;;;6.80;89.40;;;;;;5077619;28;20530;-72
2021/11/22 00:22:36;;;;;;;3.97;1.10;;;6.80;89.40;;;;;;5063390;28;20078;-72
2021/11/22 00:25:04;;;;;;;2.72;1.08;;;6.80;89.40;;;;;;5077372;28;20030;-72
2021/11/22 00:27:30;;;;;;;3.90;1.10;;;6.70;89.40;;;;;;5077405;28;20009;-72
2021/11/22 00:29:56;;;;;;;2.10;0.90;;;6.70;89.40;;;;;;5077622;28;20035;-72
2021/11/22 00:32:22;;;;;;;2.72;1.02;;;6.70;89.50;;;;;;5077562;28;20020;-72
2021/11/22 00:34:54;;;;;;;2.72;1.05;;;6.70;89.50;;;;;;5077506;28;20386;-72
2021/11/22 00:37:23;;;;;;;5.15;1.33;;;6.70;89.60;;;;;;5071560;28;20124;-72
2021/11/22 00:39:49;;;;;;;3.10;1.05;;;6.70;89.60;;;;;;5068761;28;20031;-72
2021/11/22 00:42:15;;;;;;;2.67;0.88;;;6.70;89.70;;;;;;5075623;28;20057;-72
2021/11/22 00:44:42;;;;;;;4.72;1.05;;;6.70;89.70;;;;;;5077432;28;20107;-72
2021/11/22 00:47:09;;;;;;;3.83;1.35;;;6.70;89.50;;;;;;5077179;28;20031;-72
2021/11/22 00:49:36;;;;;;;3.40;1.05;;;6.60;89.40;;;;;;5076093;28;20491;-72
2021/11/22 00:52:04;;;;;;;4.10;1.38;;;6.60;89.40;;;;;;5077083;28;20032;-72
2021/11/22 00:54:30;;;;;;;4.13;0.95;;;6.60;89.40;;;;;;5080004;28;20111;-72
2021/11/22 00:56:56;;;;;;;4.47;1.00;;;6.60;89.40;;;;;;5080910;28;20383;-72
2021/11/22 00:59:23;;;;;;;3.47;1.00;;;6.60;89.40;;;;;;5081430;28;20036;-72
2021/11/22 01:01:50;;;;;;;1.25;0.88;;;6.60;89.50;;;;;;5081324;28;20048;-72
2021/11/22 01:04:19;;;;;;;2.95;1.13;;;6.60;89.50;;;;;;5081086;28;20100;-72
2021/11/22 01:06:45;;;;;;;3.33;1.13;;;6.60;89.50;;;;;;5081299;28;20025;-72
2021/11/22 01:09:11;;;;;;;4.85;1.50;;;6.60;89.50;;;;;;5081019;28;20077;-72
2021/11/22 01:11:38;;;;;;;4.88;1.05;;;6.50;89.70;;;;;;5077286;28;20024;-72
2021/11/22 01:14:04;;;;;;;4.18;0.98;;;6.50;89.60;;;;;;5080614;28;20040;-72
2021/11/22 01:16:30;;;;;;;3.53;1.15;;;6.50;89.50;;;;;;5081081;28;20025;-72
2021/11/22 01:18:58;;;;;;;3.33;1.02;;;6.40;90.00;;;;;;5080964;28;20017;-72
2021/11/22 01:21:24;;;;;;;3.53;0.90;;;6.40;89.50;;;;;;5081051;28;20517;-72
2021/11/22 01:23:50;;;;;;;3.08;0.82;;;6.40;89.50;;;;;;5080717;28;20024;-72
2021/11/22 01:26:16;;;;;;;3.50;0.90;;;6.40;89.50;;;;;;5080915;28;20095;-72
2021/11/22 01:28:42;;;;;;;3.33;1.00;;;6.40;89.50;;;;;;5080499;28;20059;-72
2021/11/22 01:31:08;;;;;;;2.55;1.20;;;6.40;89.60;;;;;;5080844;28;20050;-72
2021/11/22 01:33:34;;;;;;;2.58;0.82;;;6.30;89.60;;;;;;5080631;28;20052;-72
2021/11/22 01:36:00;;;;;;;4.32;1.25;;;6.30;89.80;;;;;;5080781;28;20024;-72
2021/11/22 01:38:26;;;;;;;6.43;1.10;;;6.30;89.90;;;;;;5067121;28;20051;-72
2021/11/22 01:40:52;;;;;;;2.30;0.90;;;6.30;90.00;;;;;;5080689;28;20023;-72
2021/11/22 01:43:18;;;;;;;5.25;1.65;;;6.30;90.00;;;;;;5080325;28;20021;-72
2021/11/22 01:45:45;;;;;;;3.25;1.15;;;6.30;90.10;;;;;;5080750;28;20028;-72
2021/11/22 01:48:12;;;;;;;3.47;1.05;;;6.30;90.10;;;;;;5080575;28;20502;-72
2021/11/22 01:50:38;;;;;;;4.63;1.10;;;6.30;90.10;;;;;;5080521;28;20099;-72
2021/11/22 01:53:05;;;;;;;3.53;1.02;;;6.20;90.20;;;;;;5080283;28;20047;-72
2021/11/22 01:55:31;;;;;;;5.75;1.13;;;6.30;90.20;;;;;;5080231;28;20020;-72
2021/11/22 01:57:59;;;;;;;4.00;0.90;;;6.20;90.20;;;;;;5075321;28;20061;-72
2021/11/22 02:00:24;;;;;;;3.47;1.00;;;6.20;90.30;;;;;;5079754;28;20013;-71
2021/11/22 02:02:50;;;;;;;4.65;1.30;;;6.20;90.30;;;;;;5079577;28;20050;-72
2021/11/22 02:05:16;;;;;;;4.28;0.90;;;6.20;90.30;;;;;;5078846;28;20361;-72
2021/11/22 02:07:43;;;;;;;4.97;1.00;;;6.20;90.30;;;;;;5079527;28;20032;-72
2021/11/22 02:10:09;;;;;;;5.63;0.95;;;6.20;90.40;;;;;;5080156;28;20085;-72
2021/11/22 02:12:35;;;;;;;3.35;0.88;;;6.20;90.40;;;;;;5074876;28;20379;-72
2021/11/22 02:15:04;;;;;;;3.83;1.75;;;6.20;90.40;;;;;;5080016;28;20029;-72
2021/11/22 02:17:31;;;;;;;3.08;0.90;;;6.10;90.40;;;;;;5078443;28;20039;-72
2021/11/22 02:20:03;;;;;;;3.58;0.90;;;6.10;90.40;;;;;;5080147;28;20025;-72
2021/11/22 02:22:30;;;;;;;;;;;6.10;90.70;;;;;;5080083;28;20030;-72
2021/11/22 02:24:57;;;;;;;2.85;1.08;;;6.10;90.50;;;;;;5079607;28;19905;-71
2021/11/22 02:27:23;;;;;;;4.95;1.73;;;6.10;90.60;;;;;;5079390;28;20020;-72
2021/11/22 02:29:50;;;;;;;4.72;2.03;;;6.10;90.60;;;;;;5079560;28;20028;-72
2021/11/22 02:32:15;;;;;;;2.28;1.15;;;6.10;90.60;;;;;;5079389;28;20035;-72
2021/11/22 02:34:42;;;;;;;3.42;0.90;;;6.10;90.60;;;;;;5079745;28;20387;-72
2021/11/22 02:37:08;;;;;;;5.18;1.23;;;6.10;90.60;;;;;;5076693;28;20045;-72
2021/11/22 02:39:35;;;;;;;3.35;1.13;;;6.00;90.70;;;;;;5070189;28;20069;-72
2021/11/22 02:42:00;;;;;;;2.47;1.00;;;6.10;90.70;;;;;;5078749;28;20106;-72
2021/11/22 02:44:26;;;;;;;3.38;1.10;;;6.00;90.70;;;;;;5079387;28;20020;-71
2021/11/22 02:46:52;;;;;;;4.03;1.10;;;6.00;90.70;;;;;;5078923;28;20055;-72
2021/11/22 02:49:18;;;;;;;3.72;1.10;;;6.00;90.70;;;;;;5079492;28;20020;-72
2021/11/22 02:51:44;;;;;;;3.13;0.90;;;6.10;90.80;;;;;;5079136;28;20052;-72
2021/11/22 02:54:09;;;;;;;6.68;1.20;;;6.00;91.10;;;;;;5079217;28;20036;-72
2021/11/22 02:56:36;;;;;;;3.00;1.10;;;6.00;90.90;;;;;;5078872;28;20090;-72
2021/11/22 02:59:03;;;;;;;3.08;1.00;;;6.00;90.90;;;;;;5079000;28;20021;-72
2021/11/22 03:01:30;;;;;;;3.63;1.10;;;6.00;91.00;;;;;;5079019;28;20024;-72
2021/11/22 03:03:56;;;;;;;3.10;1.10;;;6.00;91.00;;;;;;5078970;28;20438;-72
2021/11/22 03:06:23;;;;;;;4.03;0.98;;;6.00;91.00;;;;;;5078729;28;20399;-72
2021/11/22 03:08:50;;;;;;;3.53;0.90;;;6.00;91.00;;;;;;5078499;28;20024;-72
2021/11/22 03:11:17;;;;;;;8.48;2.13;;;5.90;91.00;;;;;;5073962;28;20084;-72
2021/11/22 03:13:45;;;;;;;7.68;2.95;;;5.90;91.10;;;;;;5078529;28;20095;-72
2021/11/22 03:16:13;;;;;;;6.20;1.35;;;5.90;91.20;;;;;;5078473;28;20066;-72
2021/11/22 03:18:39;;;;;;;6.22;1.90;;;5.90;91.20;;;;;;5077503;28;20032;-72
2021/11/22 03:21:06;;;;;;;7.22;1.70;;;5.90;91.30;;;;;;5074361;28;20052;-72
2021/11/22 03:23:34;;;;;;;6.53;1.85;;;5.90;91.40;;;;;;5078234;28;20042;-72
2021/11/22 03:25:59;;;;;;;5.10;1.70;;;5.80;91.40;;;;;;5077305;28;20024;-72
2021/11/22 03:28:27;;;;;;;5.10;1.48;;;5.80;91.60;;;;;;5078210;28;20033;-72
2021/11/22 03:30:54;;;;;;;8.10;2.05;;;5.80;91.50;;;;;;5077992;28;20521;-72
2021/11/22 03:33:20;;;;;;;6.47;2.20;;;5.80;91.60;;;;;;5077131;28;20085;-72
2021/11/22 03:35:48;;;;;;;6.78;1.83;;;5.80;91.60;;;;;;5078154;28;20485;-72
2021/11/22 03:38:15;;;;;;;6.15;1.75;;;5.80;91.70;;;;;;5066489;28;20147;-72
2021/11/22 03:40:43;;;;;;;6.57;2.28;;;5.70;91.70;;;;;;5076719;28;20087;-72
2021/11/22 03:45:41;;;;;;;3.92;1.50;;;5.70;91.80;;;;;;5078316;28;20025;-72
2021/11/22 03:48:07;;;;;;;3.47;1.30;;;5.70;91.80;;;;;;5078028;28;20024;-72
2021/11/22 03:50:33;;;;;;;4.78;1.65;;;5.60;91.80;;;;;;5080107;28;20021;-72
2021/11/22 03:52:59;;;;;;;4.18;1.10;;;5.60;91.80;;;;;;5077950;28;20395;-72
2021/11/22 03:55:26;;;;;;;4.80;1.25;;;5.60;91.80;;;;;;5077986;28;20427;-72
2021/11/22 03:57:52;;;;;;;3.83;1.17;;;5.60;91.90;;;;;;5077200;28;20451;-72
2021/11/22 04:00:18;;;;;;;3.92;1.27;;;5.50;91.90;;;;;;5077425;28;20017;-72
2021/11/22 04:02:44;;;;;;;7.47;1.35;;;5.50;92.00;;;;;;5077979;28;20025;-72
2021/11/22 04:05:10;;;;;;;4.25;1.15;;;5.50;92.10;;;;;;5077763;28;20078;-72
2021/11/22 04:07:36;;;;;;;3.40;0.95;;;5.50;92.20;;;;;;5077950;28;20050;-72
2021/11/22 04:10:04;;;;;;;3.67;0.82;;;5.50;92.20;;;;;;5077920;28;20405;-72
2021/11/22 04:12:30;;;;;;;3.05;1.25;;;5.50;92.20;;;;;;5073092;28;20035;-72
2021/11/22 04:14:56;;;;;;;4.70;1.80;;;5.40;92.20;;;;;;5077715;28;20016;-72
2021/11/22 04:17:22;;;;;;;4.63;1.20;;;5.40;92.30;;;;;;5077499;28;20032;-72
2021/11/22 04:19:48;;;;;;;4.38;1.10;;;5.40;92.40;;;;;;5077839;28;20377;-72
2021/11/22 04:22:14;;;;;;;5.65;1.15;;;5.40;92.50;;;;;;5077528;28;20451;-72
2021/11/22 04:24:40;;;;;;;4.47;1.08;;;5.40;92.50;;;;;;5077431;28;20017;-72
2021/11/22 04:27:09;;;;;;;3.70;1.10;;;5.40;92.60;;;;;;5077219;28;20365;-72
2021/11/22 04:29:35;;;;;;;6.28;1.20;;;5.40;92.60;;;;;;5077195;28;20028;-72
2021/11/22 04:32:01;;;;;;;3.80;1.15;;;5.40;92.60;;;;;;5077193;28;20399;-72
2021/11/22 04:34:27;;;;;;;4.03;1.10;;;5.30;92.60;;;;;;5077630;28;20029;-72
2021/11/22 04:36:53;;;;;;;9.50;1.35;;;5.30;92.70;;;;;;5073866;28;20036;-72
2021/11/22 04:39:19;;;;;;;6.68;1.35;;;5.30;92.70;;;;;;5064342;28;20396;-72
2021/11/22 04:41:44;;;;;;;5.00;1.42;;;5.30;92.70;;;;;;5077160;28;20107;-72
2021/11/22 04:44:10;;;;;;;5.57;1.17;;;5.30;92.70;;;;;;5077065;28;20017;-72
2021/11/22 04:46:36;;;;;;;6.55;1.23;;;5.30;92.70;;;;;;5077471;28;20054;-71
2021/11/22 04:49:02;;;;;;;4.35;1.10;;;5.30;92.80;;;;;;5077500;28;20044;-72
2021/11/22 04:51:29;;;;;;;5.65;1.98;;;5.30;92.80;;;;;;5077209;28;20043;-72
2021/11/22 04:53:55;;;;;;;2.60;1.17;;;5.30;92.70;;;;;;5077255;28;20381;-72
2021/11/22 04:56:21;;;;;;;4.13;1.10;;;5.20;92.60;;;;;;5077266;28;20029;-72
2021/11/22 04:58:46;;;;;;;4.03;1.10;;;5.20;92.70;;;;;;5077098;28;20017;-71
2021/11/22 05:01:12;;;;;;;5.22;1.23;;;5.20;92.70;;;;;;5075854;28;20043;-72
2021/11/22 05:03:38;;;;;;;4.07;1.20;;;5.20;92.80;;;;;;5077194;28;20090;-72
2021/11/22 05:06:04;;;;;;;5.00;1.45;;;5.20;92.90;;;;;;5076938;28;20033;-71
2021/11/22 05:08:30;;;;;;;4.03;1.40;;;5.20;92.90;;;;;;5077464;28;20035;-72
2021/11/22 05:10:56;;;;;;;2.47;1.20;;;5.10;92.90;;;;;;5072301;28;20025;-72
2021/11/22 05:13:22;;;;;;;5.50;2.25;;;5.10;92.90;;;;;;5076786;28;20024;-72
2021/11/22 05:15:49;;;;;;;5.53;1.40;;;5.10;92.90;;;;;;5075658;28;20112;-72
2021/11/22 05:18:15;;;;;;;5.82;1.55;;;5.10;93.00;;;;;;5077140;28;20023;-72
2021/11/22 05:20:42;;;;;;;4.72;1.25;;;5.10;93.10;;;;;;5076878;28;20029;-71
2021/11/22 05:23:09;;;;;;;5.40;1.30;;;5.10;93.10;;;;;;5077036;28;20066;-72
2021/11/22 05:25:36;;;;;;;5.28;1.10;;;5.10;93.10;;;;;;5076885;28;20021;-72
2021/11/22 05:28:03;;;;;;;2.95;1.00;;;5.10;93.10;;;;;;5076718;28;20150;-72
2021/11/22 05:30:29;;;;;;;4.75;1.20;;;5.10;93.10;;;;;;5076994;28;20139;-72
2021/11/22 05:32:58;;;;;;;6.90;1.05;;;5.10;93.10;;;;;;5076885;28;20025;-72
2021/11/22 05:35:24;;;;;;;4.95;1.20;;;5.10;93.10;;;;;;5075417;28;20040;-71
2021/11/22 05:37:50;;;;;;;7.15;1.90;;;5.10;93.10;;;;;;5068311;28;20049;-72
2021/11/22 05:40:16;;;;;;;4.32;1.20;;;5.10;93.20;;;;;;5073935;28;20020;-72
2021/11/22 05:42:41;;;;;;;6.30;1.40;;;5.10;93.20;;;;;;5080316;28;20021;-72
2021/11/22 05:45:07;;;;;;;3.80;1.15;;;5.00;93.00;;;;;;5080424;28;20024;-72
2021/11/22 05:47:33;;;;;;;4.65;1.25;;;5.00;93.00;;;;;;5080761;28;20024;-72
2021/11/22 05:50:09;;;;;;;6.60;1.60;;;5.00;92.90;;;;;;5080360;28;20028;-72
2021/11/22 05:52:37;;;;;;;2.80;1.30;;;5.00;92.90;;;;;;5080307;28;20390;-72
2021/11/22 05:55:08;;;;;;;4.30;1.48;;;5.00;93.00;;;;;;5080009;28;20032;-71
2021/11/22 05:57:34;;;;;;;6.65;1.10;;;5.00;93.00;;;;;;5080155;28;20032;-72
2021/11/22 05:59:59;;;;;;;8.57;1.65;;;5.00;93.00;;;;;;5080061;28;20028;-71
2021/11/22 06:02:25;;;;;;;4.88;1.27;;;5.00;93.10;;;;;;5080191;28;20060;-71
2021/11/22 06:04:51;;;;;;;3.97;1.33;;;5.00;93.10;;;;;;5079999;28;20013;-71
2021/11/22 06:07:17;;;;;;;5.32;3.40;;;4.90;93.10;;;;;;5080140;28;20051;-80
2021/11/22 06:09:43;;;;;;;7.07;1.70;;;4.90;93.00;;;;;;5080085;28;20032;-74
2021/11/22 06:12:09;;;;;;;6.05;1.50;;;4.90;93.00;;;;;;5075112;28;20021;-71
2021/11/22 06:14:36;;;;;;;6.50;1.63;;;4.90;93.00;;;;;;5079852;28;20029;-72
2021/11/22 06:17:02;;;;;;;4.80;1.45;;;4.90;93.10;;;;;;5080142;28;20061;-72
2021/11/22 06:19:28;;;;;;;3.55;1.40;;;4.90;93.10;;;;;;5077866;28;20017;-72
2021/11/22 06:21:54;;;;;;;5.03;1.67;;;4.90;93.10;;;;;;5073864;28;20025;-69
2021/11/22 06:24:21;;;;;;;5.28;1.55;;;4.90;93.10;;;;;;5077345;28;20020;-72
2021/11/22 06:26:47;;;;;;;6.78;2.20;;;4.90;93.10;;;;;;5077470;28;20032;-80
2021/11/22 06:29:17;;;;;;;6.25;1.60;;;4.90;93.20;;;;;;5079508;28;20035;-76
2021/11/22 06:31:44;;;;;;;4.55;1.65;;;5.00;93.20;;;;;;5081529;28;20063;-74
2021/11/22 06:34:10;;;;;;;3.75;1.73;;;4.90;93.10;;;;;;5076237;28;20037;-76
2021/11/22 06:36:36;;;;;;;8.45;1.70;;;4.90;93.00;;;;;;5079330;28;20434;-72
2021/11/22 06:39:03;;;;;;;4.65;1.50;;;4.90;93.00;;;;;;5075448;28;20045;-73
2021/11/22 06:41:29;;;;;;;4.70;1.58;;;5.00;93.10;;;;;;5074941;28;20021;-73
2021/11/22 06:43:55;;;;;;;5.80;1.58;;;4.90;93.10;;;;;;5077658;28;20031;-73
2021/11/22 06:46:20;;;;;;;9.27;1.85;;;5.00;93.10;;;;;;5077173;28;20032;-72
2021/11/22 06:48:46;;;;;;;3.25;1.60;;;4.90;93.10;;;;;;5081334;28;20044;-72
2021/11/22 06:51:12;;;;;;;3.55;1.77;;;4.90;93.10;;;;;;5074285;28;20028;-78
2021/11/22 06:53:38;;;;;;;13.68;1.75;;;4.90;93.10;;;;;;5075845;28;20032;-74
2021/11/22 06:56:04;;;;;;;9.65;1.73;;;4.90;93.10;;;;;;5076634;28;20028;-72
2021/11/22 06:58:30;;;;;;;6.20;1.65;;;4.90;93.10;;;;;;5077058;28;20032;-71
2021/11/22 07:00:56;;;;;;;3.78;1.70;;;4.90;93.20;;;;;;5077155;28;20468;-71
2021/11/22 07:03:24;;;;;;;5.75;1.35;;;5.00;93.30;;;;;;5076071;28;20050;-71
2021/11/22 07:05:50;;;;;;;8.02;1.42;;;5.00;93.40;;;;;;5071707;28;20024;-71
2021/11/22 07:08:16;;;;;;;5.95;1.83;;;5.00;93.40;;;;;;5077957;28;20385;-73
2021/11/22 07:10:42;;;;;;;9.07;2.05;;;5.00;93.40;;;;;;5073488;28;20088;-72
2021/11/22 07:13:08;;;;;;;6.05;1.48;;;5.00;93.40;;;;;;5074353;28;20023;-72
2021/11/22 07:15:36;;;;;;;6.93;2.42;;;5.00;93.40;;;;;;5082563;28;20021;-72
2021/11/22 07:18:05;;;;;;;26.08;14.82;;;5.00;93.40;;;;;;5075742;28;20025;-71
2021/11/22 07:20:31;;;;;;;9.00;3.80;;;5.00;93.40;;;;;;5078660;28;20027;-77
2021/11/22 07:22:57;;;;;;;5.95;2.22;;;5.00;93.40;;;;;;5076048;28;20017;-72
2021/11/22 07:25:23;;;;;;;5.88;1.45;;;5.00;93.40;;;;;;5078039;28;20028;-72
2021/11/22 07:27:50;;;;;;;4.07;1.50;;;5.00;93.40;;;;;;5077314;28;20477;-71
2021/11/22 07:30:20;;;;;;;3.45;1.45;;;5.00;93.40;;;;;;5077136;28;20036;-71
2021/11/22 07:32:51;;;;;;;8.88;1.65;;;5.00;93.40;;;;;;5075077;28;20023;-71
2021/11/22 07:35:17;;;;;;;5.65;2.25;;;5.10;93.40;;;;;;5077825;28;20054;-71
2021/11/22 07:37:43;;;;;;;5.15;1.92;;;5.10;93.40;;;;;;5075216;28;20162;-71
2021/11/22 07:40:09;;;;;;;5.57;1.73;;;5.10;93.30;;;;;;5076340;28;20045;-71
2021/11/22 07:42:35;;;;;;;6.70;1.35;;;5.10;93.30;;;;;;5077416;28;20024;-71
2021/11/22 07:45:01;;;;;;;6.60;1.50;;;5.10;93.30;;;;;;5076912;28;20032;-71
2021/11/22 07:47:26;;;;;;;2.95;1.20;;;5.10;93.30;;;;;;5077813;28;20047;-71
2021/11/22 07:49:52;;;;;;;4.45;1.60;;;5.10;93.30;;;;;;5076485;28;20403;-71
2021/11/22 07:52:19;;;;;;;3.53;1.90;;;5.10;93.30;;;;;;5076424;28;20028;-71
2021/11/22 07:54:45;;;;;;;7.38;2.72;;;5.10;93.20;;;;;;5072991;28;20388;-72
2021/11/22 07:57:11;;;;;;;8.13;1.80;;;5.10;93.20;;;;;;5071173;28;20118;-72
2021/11/22 07:59:36;;;;;;;5.50;1.60;;;5.10;93.20;;;;;;5070099;28;20020;-72
2021/11/22 08:02:02;;;;;;;7.55;1.50;;;5.20;93.20;;;;;;5075129;28;20055;-72
2021/11/22 08:04:28;;;;;;;6.88;1.83;;;5.20;93.20;;;;;;5074870;28;20029;-74
2021/11/22 08:06:59;;;;;;;3.55;1.50;;;5.20;93.30;;;;;;5077364;28;20029;-71
2021/11/22 08:09:30;;;;;;;8.48;1.90;;;5.20;93.30;;;;;;5075389;28;20045;-72
2021/11/22 08:14:35;;;;;;;4.82;1.50;;;5.30;93.20;;;;;;5075759;28;20445;-72
2021/11/22 08:17:01;;;;;;;5.80;1.40;;;5.30;93.20;;;;;;5077028;28;20047;-75
2021/11/22 08:19:27;;;;;;;7.00;1.38;;;5.30;93.20;;;;;;5076019;28;20438;-73
2021/11/22 08:21:53;;;;;;;8.50;1.48;;;5.40;93.20;;;;;;5075883;28;20518;-74
2021/11/22 08:24:19;;;;;;;5.25;1.40;;;5.40;93.20;;;;;;5074121;28;20466;-73
2021/11/22 08:26:45;;;;;;;41.35;23.15;;;5.40;93.20;;;;;;5076461;28;20071;-73
2021/11/22 08:29:11;;;;;;;16.38;8.48;;;5.50;93.20;;;;;;5073424;28;20028;-71
2021/11/22 08:31:37;;;;;;;9.23;2.95;;;5.50;93.20;;;;;;5074143;28;20025;-72
2021/11/22 08:34:03;;;;;;;6.15;1.90;;;5.60;93.20;;;;;;5083221;28;20036;-73
2021/11/22 08:36:28;;;;;;;5.93;1.90;;;5.60;93.20;;;;;;5072016;28;20028;-72
2021/11/22 08:38:54;;;;;;;6.22;1.50;;;5.60;93.10;;;;;;5062852;28;20056;-73
2021/11/22 08:41:20;;;;;;;4.28;1.60;;;5.60;93.10;;;;;;5075546;28;20058;-73
2021/11/22 08:43:46;;;;;;;4.85;1.90;;;5.70;93.20;;;;;;5076131;28;20335;-73
2021/11/22 08:46:13;;;;;;;6.15;1.80;;;5.70;93.20;;;;;;5076947;28;20052;-73
2021/11/22 08:48:38;;;;;;;7.47;2.22;;;5.70;93.10;;;;;;5076622;28;20056;-73
2021/11/22 08:51:05;;;;;;;6.25;1.80;;;5.80;93.20;;;;;;5077089;28;20502;-73
2021/11/22 08:53:32;;;;;;;4.80;1.63;;;5.90;93.20;;;;;;5076429;28;20028;-73
2021/11/22 08:55:58;;;;;;;7.80;1.90;;;5.90;93.20;;;;;;5076459;28;20029;-72
2021/11/22 08:58:24;;;;;;;9.95;2.40;;;6.00;93.20;;;;;;5076112;28;20023;-73
2021/11/22 09:00:50;;;;;;;10.35;2.03;;;6.10;93.30;;;;;;5075475;28;20029;-72
2021/11/22 09:03:16;;;;;;;6.30;1.92;;;6.30;93.30;;;;;;5076524;28;20016;-72
2021/11/22 09:05:43;;;;;;;6.32;1.58;;;6.40;93.20;;;;;;5076133;28;20074;-72
2021/11/22 09:08:11;;;;;;;5.88;1.70;;;6.50;93.00;;;;;;5076256;28;20033;-73
2021/11/22 09:10:38;;;;;;;9.35;1.92;;;6.60;92.80;;;;;;5073453;28;20014;-73
2021/11/22 09:13:05;;;;;;;8.00;1.88;;;6.80;92.50;;;;;;5075825;28;20029;-73
2021/11/22 09:15:32;;;;;;;9.02;2.38;;;6.80;92.20;;;;;;5079030;28;20047;-72
2021/11/22 09:17:59;;;;;;;7.63;1.80;;;6.90;92.10;;;;;;5080322;28;20490;-73
2021/11/22 09:20:27;;;;;;;6.43;1.60;;;6.90;92.10;;;;;;5080506;28;20055;-72
2021/11/22 09:22:57;;;;;;;6.28;2.08;;;7.10;92.20;;;;;;5080735;28;20028;-72
2021/11/22 09:25:23;;;;;;;5.93;1.88;;;7.30;92.40;;;;;;5078723;28;20020;-73
2021/11/22 09:27:50;;;;;;;6.57;2.03;;;7.60;92.40;;;;;;5080297;28;20027;-73
2021/11/22 09:30:17;;;;;;;7.03;1.70;;;8.10;91.70;;;;;;5080038;28;20016;-73
2021/11/22 09:32:43;;;;;;;5.07;1.42;;;8.50;90.90;;;;;;5080027;28;20021;-74
2021/11/22 09:35:09;;;;;;;5.60;1.42;;;8.70;90.30;;;;;;5080003;28;20021;-73
2021/11/22 09:37:37;;;;;;;4.30;1.40;;;9.10;89.90;;;;;;5073506;28;20081;-74
2021/11/22 09:40:05;;;;;;;6.53;1.63;;;9.40;87.40;;;;;;5073373;28;20025;-73
2021/11/22 09:42:30;;;;;;;5.57;1.23;;;9.60;86.30;;;;;;5066765;28;20399;-73
2021/11/22 09:44:56;;;;;;;5.63;1.45;;;9.80;85.10;;;;;;5079820;28;20013;-73
2021/11/22 09:47:22;;;;;;;4.00;1.20;;;10.10;84.10;;;;;;5080037;28;20573;-73
2021/11/22 09:49:53;;;;;;;7.18;1.45;;;10.40;82.10;;;;;;5079647;28;20033;-73
2021/11/22 09:52:20;;;;;;;4.75;1.20;;;10.80;79.90;;;;;;5079878;28;20032;-73
2021/11/22 09:54:46;;;;;;;6.80;2.08;;;11.20;79.20;;;;;;5079233;28;20162;-73
2021/11/22 09:57:13;;;;;;;3.95;1.90;;;11.60;77.90;;;;;;5079404;28;20070;-73
2021/11/22 09:59:38;;;;;;;7.68;1.30;;;12.00;76.70;;;;;;5079872;28;20029;-74
2021/11/22 10:02:04;;;;;;;4.07;1.10;;;12.40;75.50;;;;;;5080158;28;20031;-73
2021/11/22 10:04:31;;;;;;;4.68;1.13;;;12.70;75.90;;;;;;5079653;28;20437;-73
2021/11/22 10:07:06;;;;;;;3.78;1.10;;;13.10;75.70;;;;;;5079986;28;20107;-74
2021/11/22 10:09:35;;;;;;;5.88;1.25;;;13.50;74.70;;;;;;5079873;28;20387;-73
2021/11/22 10:12:16;;;;;;;6.80;1.50;;;14.00;68.80;;;;;;5075154;28;20029;-74
2021/11/22 10:14:58;;;;;;;4.97;1.27;;;14.30;67.50;;;;;;5079783;28;20021;-74
2021/11/22 10:17:25;;;;;;;6.22;0.98;;;14.50;67.50;;;;;;5079609;28;20024;-74
2021/11/22 10:20:09;;;;;;;6.82;1.10;;;14.70;67.90;;;;;;5080069;28;20025;-74
2021/11/22 10:23:03;;;;;;;6.80;1.15;;;14.90;66.90;;;;;;5079767;28;20043;-74
2021/11/22 10:25:41;;;;;;;6.03;1.10;;;15.10;68.70;;;;;;5078882;28;20025;-74
2021/11/22 10:28:14;;;;;;;4.70;1.15;;;15.40;66.70;;;;;;5079292;28;20024;-74
2021/11/22 10:30:46;;;;;;;3.92;0.90;;;15.60;64.60;;;;;;5078240;28;20025;-74
2021/11/22 10:33:15;;;;;;;5.53;1.45;;;15.70;65.30;;;;;;5079060;28;20380;-74
2021/11/22 10:35:42;;;;;;;5.40;1.23;;;15.90;66.00;;;;;;5079194;28;20028;-74
2021/11/22 10:38:15;;;;;;;4.70;0.90;;;16.10;65.60;;;;;;5067910;28;20530;-74
2021/11/22 10:40:49;;;;;;;3.13;1.00;;;16.30;63.80;;;;;;5077624;28;20043;-74
2021/11/22 10:43:15;;;;;;;3.80;1.17;;;16.50;62.10;;;;;;5077681;28;20036;-74
2021/11/22 10:45:50;;;;;;;3.78;1.05;;;16.60;61.00;;;;;;5078874;28;20026;-74
2021/11/22 10:48:27;;;;;;;4.03;1.02;;;16.60;61.50;;;;;;5078837;28;20055;-73
2021/11/22 10:51:05;;;;;;;5.75;1.33;;;16.70;60.70;;;;;;5079262;28;20017;-73
2021/11/22 10:53:38;;;;;;;3.03;0.85;;;16.80;57.30;;;;;;5079108;28;20059;-74
2021/11/22 10:56:10;;;;;;;30.67;21.35;;;16.90;60.60;;;;;;5079319;28;20028;-74
2021/11/22 10:58:47;;;;;;;4.43;1.33;;;17.00;57.80;;;;;;5065777;28;20133;-74
2021/11/22 11:01:33;;;;;;;5.55;1.10;;;17.00;55.10;;;;;;5078810;28;20023;-75
2021/11/22 11:04:04;;;;;;;6.30;1.08;;;17.10;58.20;;;;;;5078800;28;20020;-75
2021/11/22 11:06:40;;;;;;;2.88;0.93;;;17.10;57.10;;;;;;5078758;28;20031;-73
2021/11/22 11:09:10;;;;;;;5.25;1.30;;;17.20;56.00;;;;;;5078517;28;20067;-74
2021/11/22 11:11:36;;;;;;;2.95;1.08;;;17.20;56.00;;;;;;5074800;28;20388;-74
2021/11/22 11:14:12;;;;;;;5.72;2.13;;;17.30;57.70;;;;;;5078205;28;20032;-74
2021/11/22 11:16:40;;;;;;;2.97;0.85;;;17.30;55.60;;;;;;5078653;28;20017;-74
2021/11/22 11:19:09;;;;;;;4.78;0.90;;;17.40;55.50;;;;;;5078079;28;20403;-74
2021/11/22 11:21:44;;;;;;;2.00;0.80;;;17.40;54.90;;;;;;5078049;28;20021;-74
2021/11/22 11:24:12;;;;;;;4.53;1.00;;;17.50;56.50;;;;;;5077944;28;20388;-74
2021/11/22 11:26:40;;;;;;;3.53;1.00;;;17.60;54.50;;;;;;5078020;28;20021;-74
2021/11/22 11:29:07;;;;;;;2.08;0.88;;;17.70;56.10;;;;;;5078097;28;20100;-74
2021/11/22 11:31:35;;;;;;;3.95;1.13;;;17.70;52.90;;;;;;5078569;28;20042;-75
2021/11/22 11:34:10;;;;;;;2.40;0.77;;;17.70;50.80;;;;;;5078305;28;20029;-75
2021/11/22 11:36:54;;;;;;;5.40;1.00;;;17.70;53.00;;;;;;5077982;28;20087;-75
2021/11/22 11:39:47;;;;;;;4.78;1.27;;;17.60;52.50;;;;;;5065606;28;20564;-74
2021/11/22 11:42:24;;;;;;;3.33;1.13;;;17.60;51.90;;;;;;5077768;28;20028;-74
2021/11/22 11:44:53;;;;;;;4.53;1.20;;;17.60;52.40;;;;;;5077916;28;20024;-74
2021/11/22 11:47:25;;;;;;;12.75;4.18;;;17.70;53.50;;;;;;5064776;28;20036;-73
2021/11/22 11:49:53;;;;;;;5.18;2.28;;;17.70;49.70;;;;;;5078041;28;20028;-74
2021/11/22 11:52:20;;;;;;;4.65;1.00;;;17.60;51.10;;;;;;5077735;28;20033;-74
2021/11/22 11:54:46;;;;;;;3.78;1.00;;;17.50;48.30;;;;;;5076490;28;20047;-74
2021/11/22 11:57:18;;;;;;;5.55;0.90;;;17.50;49.10;;;;;;5077422;28;20510;-76
2021/11/22 11:59:45;;;;;;;6.53;1.27;;;17.30;49.30;;;;;;5078046;28;20027;-74
2021/11/22 12:02:23;;;;;;;3.45;1.15;;;17.30;50.40;;;;;;5077333;28;20626;-75
2021/11/22 12:04:54;;;;;;;3.88;0.90;;;17.10;48.20;;;;;;5077478;28;20040;-73
2021/11/22 12:07:35;;;;;;;2.80;1.10;;;17.00;48.30;;;;;;5077973;28;20036;-74
2021/11/22 12:10:01;;;;;;;3.42;1.00;;;16.90;47.60;;;;;;5064970;28;20082;-74
2021/11/22 12:12:36;;;;;;;2.55;1.00;;;16.90;49.40;;;;;;5072801;28;20037;-73
2021/11/22 12:15:13;;;;;;;4.05;0.98;;;16.90;50.40;;;;;;5081664;28;20483;-80
2021/11/22 12:17:41;;;;;;;2.75;1.00;;;16.80;50.20;;;;;;5077499;28;20387;-76
2021/11/22 12:20:24;;;;;;;3.47;0.90;;;16.70;47.80;;;;;;5077732;28;20108;-76
2021/11/22 12:22:55;;;;;;;4.93;1.02;;;16.60;45.70;;;;;;5076044;28;20548;-76
2021/11/22 12:26:00;;;;;;;1.35;0.70;;;16.60;48.20;;;;;;5077290;28;20032;-76
2021/11/22 12:28:32;;;;;;;2.53;0.95;;;16.50;49.30;;;;;;5068442;28;20060;-76
2021/11/22 12:31:06;;;;;;;1.90;0.70;;;16.40;47.10;;;;;;5077327;28;20052;-76
2021/11/22 12:33:35;;;;;;;5.07;1.13;;;16.50;48.20;;;;;;5077367;28;20016;-76
2021/11/22 12:36:11;;;;;;;2.08;0.77;;;16.50;50.40;;;;;;5077665;28;20166;-76
2021/11/22 12:38:40;;;;;;;3.72;0.82;;;16.40;47.60;;;;;;5063537;28;20041;-77
2021/11/22 12:41:31;;;;;;;2.55;0.75;;;16.30;47.20;;;;;;5077569;28;20104;-75
2021/11/22 12:44:06;;;;;;;2.95;1.08;;;16.40;50.10;;;;;;5077300;28;20027;-76
2021/11/22 12:47:05;;;;;;;3.05;1.00;;;16.20;48.80;;;;;;5077208;28;20025;-75
2021/11/22 12:49:43;;;;;;;1.50;0.85;;;16.20;49.10;;;;;;5076626;28;20024;-76
2021/11/22 12:52:24;;;;;;;2.85;0.85;;;16.30;49.60;;;;;;5077282;28;20032;-77
2021/11/22 12:55:01;;;;;;;3.50;1.00;;;16.20;48.30;;;;;;5077109;28;20475;-78
2021/11/22 12:57:34;;;;;;;5.28;1.30;;;16.10;47.60;;;;;;5076892;28;20029;-78
2021/11/22 13:00:13;;;;;;;4.47;1.08;;;16.10;48.90;;;;;;5077088;28;20027;-77
2021/11/22 13:02:48;;;;;;;3.67;0.80;;;16.10;49.80;;;;;;5077234;28;20029;-74
2021/11/22 13:05:41;;;;;;;4.63;1.20;;;16.10;49.50;;;;;;5075879;28;20016;-77